Time;durP1;ratioP1;P1;durP2;ratioP2;P2;SDS_P1;SDS_P2;PMS_P1;PMS_P2;Temp;Humidity;BMP_temperature;BMP_pressure;BME280_temperature;BME280_humidity;BME280_pressure;Samples;Min_cycle;Max_cycle;Signal;HPM_P1;HPM_P2
2024/01/26 00:01:21;;;;;;;2.13;2.03;;;9.60;99.90;;;;;;5012162;28;20179;-70
2024/01/26 00:03:46;;;;;;;2.47;2.17;;;9.60;99.90;;;;;;5012707;28;20171;-70
2024/01/26 00:06:12;;;;;;;2.27;2.07;;;9.50;99.90;;;;;;5012555;28;20199;-70
2024/01/26 00:08:37;;;;;;;2.77;2.37;;;9.50;99.90;;;;;;5011931;28;20224;-70
2024/01/26 00:11:03;;;;;;;1.63;1.53;;;9.50;99.90;;;;;;5012274;28;20187;-70
2024/01/26 00:13:28;;;;;;;2.50;2.00;;;9.50;99.90;;;;;;5012529;28;20167;-70
2024/01/26 00:15:54;;;;;;;2.60;2.00;;;9.50;99.90;;;;;;5011284;28;20215;-70
2024/01/26 00:18:19;;;;;;;2.33;2.13;;;9.50;99.90;;;;;;5011616;28;20539;-70
2024/01/26 00:20:45;;;;;;;2.00;1.77;;;9.50;99.90;;;;;;5012285;28;20175;-69
2024/01/26 00:23:10;;;;;;;2.40;1.77;;;9.50;99.90;;;;;;5012051;28;20246;-70
2024/01/26 00:25:36;;;;;;;1.60;1.50;;;9.50;99.90;;;;;;5012156;28;20210;-70
2024/01/26 00:28:04;;;;;;;1.77;1.63;;;9.50;99.90;;;;;;5008603;28;20194;-70
2024/01/26 00:30:29;;;;;;;2.20;1.87;;;9.50;99.90;;;;;;5010950;28;20900;-70
2024/01/26 00:32:56;;;;;;;2.07;1.50;;;9.50;99.90;;;;;;5011820;28;20434;-69
2024/01/26 00:35:22;;;;;;;1.80;1.70;;;9.50;99.90;;;;;;5012350;28;20573;-69
2024/01/26 00:37:48;;;;;;;1.63;1.53;;;9.40;99.90;;;;;;5011805;28;20449;-69
2024/01/26 00:40:13;;;;;;;2.23;2.13;;;9.40;99.90;;;;;;5011859;28;20174;-69
2024/01/26 00:42:39;;;;;;;2.27;2.07;;;9.40;99.90;;;;;;5012103;28;20177;-69
2024/01/26 00:45:05;;;;;;;2.03;1.60;;;9.40;99.90;;;;;;5011593;28;20191;-70
2024/01/26 00:47:30;;;;;;;1.53;1.43;;;9.30;99.90;;;;;;5011643;28;20183;-70
2024/01/26 00:49:56;;;;;;;1.53;1.30;;;9.30;99.90;;;;;;5011852;28;20612;-70
2024/01/26 00:52:21;;;;;;;2.13;1.80;;;9.30;99.90;;;;;;5011898;28;20178;-70
2024/01/26 00:54:47;;;;;;;1.93;1.60;;;9.20;99.90;;;;;;5012009;28;20249;-70
2024/01/26 00:57:13;;;;;;;2.97;2.23;;;9.20;99.90;;;;;;5011651;28;20234;-70
2024/01/26 00:59:38;;;;;;;1.80;1.30;;;9.20;99.90;;;;;;5013100;28;20961;-70
2024/01/26 01:02:04;;;;;;;1.70;1.60;;;9.10;99.90;;;;;;5011736;28;20551;-70
2024/01/26 01:04:30;;;;;;;1.47;1.37;;;9.10;99.90;;;;;;5011034;28;20207;-70
2024/01/26 01:06:56;;;;;;;1.73;1.20;;;9.00;99.90;;;;;;5009241;28;20598;-70
2024/01/26 01:09:21;;;;;;;1.57;1.47;;;8.90;99.90;;;;;;5010651;28;20561;-70
2024/01/26 01:11:47;;;;;;;2.73;1.60;;;8.90;99.90;;;;;;5011924;28;20187;-70
2024/01/26 01:14:12;;;;;;;1.73;1.63;;;8.90;99.90;;;;;;5011644;28;20206;-69
2024/01/26 01:16:39;;;;;;;1.87;1.60;;;8.90;99.90;;;;;;5011356;28;20211;-70
2024/01/26 01:19:07;;;;;;;1.80;1.70;;;9.00;99.90;;;;;;5011524;28;20174;-70
2024/01/26 01:21:32;;;;;;;2.70;1.67;;;9.10;99.90;;;;;;5011642;28;20514;-70
2024/01/26 01:23:58;;;;;;;1.70;1.60;;;9.10;99.90;;;;;;5011427;28;20426;-70
2024/01/26 01:26:23;;;;;;;1.80;1.70;;;9.20;99.90;;;;;;5012373;28;20656;-70
2024/01/26 01:28:49;;;;;;;1.83;1.63;;;9.20;99.90;;;;;;5013444;28;20254;-70
2024/01/26 01:31:14;;;;;;;1.60;1.50;;;9.20;99.90;;;;;;5015253;28;20189;-70
2024/01/26 01:33:40;;;;;;;1.33;1.23;;;9.20;99.90;;;;;;5015585;28;20221;-70
2024/01/26 01:36:05;;;;;;;2.33;1.53;;;9.20;99.90;;;;;;5015399;28;20202;-71
2024/01/26 01:38:31;;;;;;;2.60;1.30;;;9.20;99.90;;;;;;5015119;28;20257;-70
2024/01/26 01:40:56;;;;;;;3.00;1.40;;;9.30;99.90;;;;;;5019254;28;20189;-70
2024/01/26 01:43:22;;;;;;;1.57;1.40;;;9.30;99.90;;;;;;5035105;28;20170;-70
2024/01/26 01:45:47;;;;;;;2.17;1.30;;;9.30;99.90;;;;;;5019521;28;20210;-69
2024/01/26 01:48:13;;;;;;;1.13;1.13;;;9.30;99.90;;;;;;5014727;28;20552;-69
2024/01/26 01:50:38;;;;;;;1.50;1.40;;;9.30;99.90;;;;;;5014919;28;20174;-70
2024/01/26 01:53:05;;;;;;;1.50;1.40;;;9.30;99.90;;;;;;5014720;28;20581;-70
2024/01/26 01:55:33;;;;;;;1.73;1.63;;;9.20;99.90;;;;;;5014403;28;20202;-70
2024/01/26 01:57:59;;;;;;;1.37;1.27;;;9.20;99.90;;;;;;5013900;28;20479;-69
2024/01/26 02:00:24;;;;;;;1.67;1.47;;;9.20;99.90;;;;;;5014137;28;20947;-69
2024/01/26 02:02:50;;;;;;;1.50;1.40;;;9.20;99.90;;;;;;5014672;28;20189;-69
2024/01/26 02:05:16;;;;;;;1.30;1.20;;;9.20;99.90;;;;;;5014738;28;20266;-69
2024/01/26 02:07:42;;;;;;;1.30;1.20;;;9.10;99.90;;;;;;5014256;28;20175;-69
2024/01/26 02:10:09;;;;;;;1.80;1.60;;;9.10;99.90;;;;;;5014308;28;20508;-70
2024/01/26 02:12:36;;;;;;;1.63;1.50;;;9.10;99.90;;;;;;5016837;28;20452;-69
2024/01/26 02:15:03;;;;;;;1.20;1.10;;;9.10;99.90;;;;;;5006261;28;20455;-69
2024/01/26 02:17:33;;;;;;;0.90;0.90;;;9.10;99.90;;;;;;5007133;28;20535;-70
2024/01/26 02:20:00;;;;;;;1.10;1.00;;;9.10;99.90;;;;;;5010832;28;20438;-69
2024/01/26 02:22:25;;;;;;;1.17;1.07;;;9.10;99.90;;;;;;5012951;28;20441;-69
2024/01/26 02:24:51;;;;;;;1.17;0.97;;;9.10;99.90;;;;;;5010233;28;20519;-69
2024/01/26 02:27:18;;;;;;;1.30;1.20;;;9.10;99.90;;;;;;5013577;28;20183;-70
2024/01/26 02:29:43;;;;;;;1.90;1.03;;;9.00;99.90;;;;;;5013872;28;20185;-69
2024/01/26 02:32:10;;;;;;;1.43;1.17;;;9.00;99.90;;;;;;5013791;28;20441;-69
2024/01/26 02:34:36;;;;;;;1.37;1.27;;;9.00;99.90;;;;;;5014037;28;20199;-70
2024/01/26 02:37:02;;;;;;;1.30;1.20;;;9.10;99.90;;;;;;5013916;28;20453;-70
2024/01/26 02:39:28;;;;;;;1.50;1.13;;;9.00;99.90;;;;;;5012672;28;20179;-69
2024/01/26 02:41:54;;;;;;;1.40;1.30;;;9.00;99.90;;;;;;5014147;28;20313;-70
2024/01/26 02:44:20;;;;;;;1.07;0.97;;;9.00;99.90;;;;;;5013820;28;21017;-69
2024/01/26 02:46:49;;;;;;;0.90;0.90;;;9.00;99.90;;;;;;5013399;28;20426;-69
2024/01/26 02:49:16;;;;;;;0.90;0.90;;;8.90;99.90;;;;;;5013726;28;20305;-70
2024/01/26 02:51:42;;;;;;;1.20;1.10;;;8.90;99.90;;;;;;5013695;28;20490;-69
2024/01/26 02:54:07;;;;;;;1.30;1.20;;;8.90;99.90;;;;;;5013468;28;21000;-69
2024/01/26 02:56:33;;;;;;;2.57;1.77;;;8.90;99.90;;;;;;5013446;28;20345;-69
2024/01/26 02:58:59;;;;;;;1.80;1.17;;;8.80;99.90;;;;;;5013369;28;20203;-69
2024/01/26 03:01:24;;;;;;;0.80;0.80;;;8.80;99.90;;;;;;5013243;28;20461;-69
2024/01/26 03:03:50;;;;;;;1.20;1.10;;;8.80;99.90;;;;;;5013602;28;20175;-70
2024/01/26 03:06:16;;;;;;;1.43;1.20;;;8.80;99.90;;;;;;4996349;28;20194;-69
2024/01/26 03:08:41;;;;;;;1.20;1.00;;;8.80;99.90;;;;;;5013092;28;20179;-70
2024/01/26 03:11:07;;;;;;;1.30;1.20;;;8.80;99.90;;;;;;5013264;28;20249;-69
2024/01/26 03:13:33;;;;;;;0.97;0.97;;;8.80;99.90;;;;;;5013437;28;20201;-69
2024/01/26 03:15:58;;;;;;;1.53;1.43;;;8.80;99.90;;;;;;5012698;28;20207;-69
2024/01/26 03:18:24;;;;;;;2.80;1.30;;;8.80;99.90;;;;;;5012818;28;20175;-69
2024/01/26 03:20:49;;;;;;;2.03;1.43;;;8.80;99.90;;;;;;5013184;28;20183;-69
2024/01/26 03:23:15;;;;;;;1.70;1.20;;;8.80;99.90;;;;;;5012865;28;20182;-69
2024/01/26 03:25:40;;;;;;;1.10;1.00;;;8.80;99.90;;;;;;5015655;28;20217;-69
2024/01/26 03:28:06;;;;;;;2.00;1.87;;;8.80;99.90;;;;;;5032771;28;20170;-69
2024/01/26 03:30:35;;;;;;;1.60;1.50;;;8.70;99.90;;;;;;5022018;28;20565;-69
2024/01/26 03:33:00;;;;;;;2.93;1.40;;;8.70;99.90;;;;;;5013126;28;20560;-69
2024/01/26 03:35:27;;;;;;;2.03;1.90;;;8.70;99.90;;;;;;5012783;28;20913;-69
2024/01/26 03:37:52;;;;;;;1.90;1.57;;;8.70;99.90;;;;;;5013148;28;20195;-69
2024/01/26 03:40:18;;;;;;;1.63;1.53;;;8.60;99.90;;;;;;5012791;28;20444;-69
2024/01/26 03:42:44;;;;;;;3.00;2.23;;;8.60;99.90;;;;;;5013039;28;20167;-69
2024/01/26 03:45:09;;;;;;;1.70;1.60;;;8.60;99.90;;;;;;5012583;28;20234;-70
2024/01/26 03:47:35;;;;;;;1.67;1.57;;;8.60;99.90;;;;;;5012575;28;20187;-70
2024/01/26 03:50:01;;;;;;;2.60;1.90;;;8.60;99.90;;;;;;5012810;28;20175;-69
2024/01/26 03:52:26;;;;;;;3.27;1.87;;;8.50;99.90;;;;;;5012533;28;20225;-69
2024/01/26 03:54:53;;;;;;;2.27;2.17;;;8.50;99.90;;;;;;5012849;28;20441;-69
2024/01/26 03:57:18;;;;;;;1.70;1.60;;;8.50;99.90;;;;;;5012143;28;20620;-69
2024/01/26 03:59:44;;;;;;;2.37;1.53;;;8.50;99.90;;;;;;5012759;28;20422;-69
2024/01/26 04:02:09;;;;;;;2.07;1.93;;;8.50;99.90;;;;;;5028254;28;20230;-69
2024/01/26 04:04:35;;;;;;;1.87;1.77;;;8.50;99.90;;;;;;5012600;28;20840;-69
2024/01/26 04:07:00;;;;;;;1.93;1.30;;;8.50;99.90;;;;;;5011946;28;20262;-69
2024/01/26 04:09:26;;;;;;;1.77;1.67;;;8.50;99.90;;;;;;5012552;28;20248;-69
2024/01/26 04:11:51;;;;;;;1.80;1.70;;;8.50;99.90;;;;;;5012489;28;20175;-69
2024/01/26 04:14:17;;;;;;;1.43;1.33;;;8.40;99.90;;;;;;5012434;28;20206;-69
2024/01/26 04:16:42;;;;;;;2.20;2.00;;;8.50;99.90;;;;;;5011624;28;20215;-70
2024/01/26 04:19:08;;;;;;;2.00;1.90;;;8.50;99.90;;;;;;5012465;28;20193;-69
2024/01/26 04:21:33;;;;;;;2.90;1.87;;;8.50;99.90;;;;;;5012411;28;20167;-69
2024/01/26 04:23:59;;;;;;;1.83;1.70;;;8.50;99.90;;;;;;5020800;28;20260;-69
2024/01/26 04:26:25;;;;;;;2.13;1.77;;;8.50;99.90;;;;;;5030997;28;20265;-70
2024/01/26 04:28:51;;;;;;;1.93;1.83;;;8.50;99.90;;;;;;5032207;28;20170;-70
2024/01/26 04:31:17;;;;;;;1.77;1.50;;;8.50;99.90;;;;;;5014380;28;20523;-69
2024/01/26 04:33:42;;;;;;;1.30;1.20;;;8.50;99.90;;;;;;5009786;28;20633;-69
2024/01/26 04:36:08;;;;;;;1.57;1.47;;;8.50;99.90;;;;;;5008745;28;20229;-69
2024/01/26 04:38:35;;;;;;;1.60;1.50;;;8.60;99.90;;;;;;5010997;28;20174;-69
2024/01/26 04:41:01;;;;;;;2.10;1.70;;;8.60;99.90;;;;;;5011843;28;20425;-70
2024/01/26 04:43:26;;;;;;;4.10;1.63;;;8.60;99.90;;;;;;5011746;28;20517;-69
2024/01/26 04:45:52;;;;;;;1.47;1.37;;;8.60;99.90;;;;;;5014572;28;20249;-69
2024/01/26 04:48:17;;;;;;;3.20;1.40;;;8.60;99.90;;;;;;5021553;28;20302;-69
2024/01/26 04:50:43;;;;;;;1.60;1.33;;;8.60;99.90;;;;;;5031846;28;20249;-70
2024/01/26 04:53:08;;;;;;;2.63;1.43;;;8.60;99.90;;;;;;5019015;28;20209;-69
2024/01/26 04:55:34;;;;;;;1.83;1.23;;;8.60;99.90;;;;;;5012249;28;20195;-70
2024/01/26 04:58:00;;;;;;;2.73;1.33;;;8.70;99.90;;;;;;5010942;28;20221;-69
2024/01/26 05:00:26;;;;;;;2.60;2.40;;;8.70;99.90;;;;;;5011972;28;20547;-70
2024/01/26 05:02:51;;;;;;;1.77;1.60;;;8.70;99.90;;;;;;5004138;28;20448;-70
2024/01/26 05:05:17;;;;;;;1.77;1.67;;;8.80;99.90;;;;;;5008431;28;20226;-70
2024/01/26 05:07:43;;;;;;;2.63;1.53;;;8.80;99.90;;;;;;5015486;28;20630;-69
2024/01/26 05:10:10;;;;;;;1.60;1.50;;;8.80;99.90;;;;;;5014435;28;20190;-69
2024/01/26 05:12:36;;;;;;;1.50;1.40;;;8.90;99.90;;;;;;5015817;28;20666;-69
2024/01/26 05:15:02;;;;;;;3.17;2.00;;;8.90;99.90;;;;;;5015710;28;20437;-69
2024/01/26 05:17:28;;;;;;;2.77;1.80;;;8.90;99.90;;;;;;5014142;28;20199;-69
2024/01/26 05:19:53;;;;;;;4.03;1.70;;;8.90;99.90;;;;;;5015059;28;20525;-69
2024/01/26 05:22:19;;;;;;;1.53;1.43;;;8.90;99.90;;;;;;5015465;28;20178;-69
2024/01/26 05:24:45;;;;;;;1.53;1.43;;;8.80;99.90;;;;;;5015331;28;20206;-69
2024/01/26 05:27:11;;;;;;;1.50;1.40;;;8.70;99.90;;;;;;5014713;28;20191;-69
2024/01/26 05:29:36;;;;;;;4.17;2.67;;;8.60;99.90;;;;;;5015062;28;20425;-69
2024/01/26 05:32:02;;;;;;;1.60;1.50;;;8.60;99.90;;;;;;5014914;28;20433;-69
2024/01/26 05:34:28;;;;;;;2.57;1.80;;;8.50;99.90;;;;;;5015066;28;20202;-69
2024/01/26 05:36:53;;;;;;;1.77;1.67;;;8.50;99.90;;;;;;4995609;28;20192;-68
2024/01/26 05:39:19;;;;;;;1.23;1.13;;;8.50;99.90;;;;;;5023888;28;20655;-69
2024/01/26 05:41:44;;;;;;;1.70;1.60;;;8.50;99.90;;;;;;5012193;28;20556;-69
2024/01/26 05:44:10;;;;;;;2.60;1.60;;;8.50;99.90;;;;;;5015001;28;20171;-68
2024/01/26 05:46:35;;;;;;;1.70;1.60;;;8.40;99.90;;;;;;5008923;28;20923;-68
2024/01/26 05:49:01;;;;;;;1.70;1.60;;;8.40;99.90;;;;;;5014947;28;20258;-69
2024/01/26 05:51:26;;;;;;;1.87;1.60;;;8.40;99.90;;;;;;5014323;28;20173;-69
2024/01/26 05:53:52;;;;;;;1.63;1.53;;;8.40;99.90;;;;;;5013012;28;20575;-69
2024/01/26 05:56:18;;;;;;;2.70;1.83;;;8.40;99.90;;;;;;5014578;28;20567;-68
2024/01/26 05:58:44;;;;;;;4.37;2.30;;;8.40;99.90;;;;;;5004140;28;20265;-69
2024/01/26 06:01:10;;;;;;;3.90;1.60;;;8.30;99.90;;;;;;5012651;28;20834;-69
2024/01/26 06:03:36;;;;;;;1.47;1.37;;;8.30;99.90;;;;;;5013957;28;20457;-69
2024/01/26 06:06:03;;;;;;;1.83;1.73;;;8.30;99.90;;;;;;5014644;28;20539;-69
2024/01/26 06:08:28;;;;;;;2.37;1.50;;;8.30;99.90;;;;;;5014707;28;20198;-69
2024/01/26 06:10:56;;;;;;;1.47;1.33;;;8.20;99.90;;;;;;5013986;28;20490;-69
2024/01/26 06:13:22;;;;;;;1.57;1.47;;;8.30;99.90;;;;;;5006795;28;20237;-69
2024/01/26 06:15:48;;;;;;;2.67;1.57;;;8.30;99.90;;;;;;5010726;28;20453;-68
2024/01/26 06:18:13;;;;;;;1.40;1.30;;;8.30;99.90;;;;;;5024566;28;20455;-69
2024/01/26 06:20:39;;;;;;;1.83;1.60;;;8.30;99.90;;;;;;5034376;28;20182;-69
2024/01/26 06:23:05;;;;;;;1.30;1.20;;;8.30;99.90;;;;;;5016337;28;20225;-69
2024/01/26 06:25:31;;;;;;;1.77;1.60;;;8.40;99.90;;;;;;5014059;28;20226;-69
2024/01/26 06:27:57;;;;;;;1.93;1.60;;;8.40;99.90;;;;;;5013950;28;20198;-68
2024/01/26 06:30:23;;;;;;;1.73;1.40;;;8.50;99.90;;;;;;5009248;28;20430;-69
2024/01/26 06:32:48;;;;;;;2.37;2.10;;;8.50;99.90;;;;;;4997863;28;21004;-69
2024/01/26 06:35:14;;;;;;;1.10;1.10;;;8.60;99.90;;;;;;5018478;28;20939;-69
2024/01/26 06:37:40;;;;;;;2.60;2.37;;;8.70;99.90;;;;;;5014047;28;20305;-69
2024/01/26 06:40:10;;;;;;;1.43;1.20;;;8.80;99.90;;;;;;5014062;28;20179;-68
2024/01/26 06:42:40;;;;;;;1.30;1.20;;;8.80;99.90;;;;;;5013002;28;20422;-69
2024/01/26 06:45:10;;;;;;;1.50;1.40;;;8.90;99.90;;;;;;5013180;28;20437;-68
2024/01/26 06:47:36;;;;;;;1.27;1.17;;;8.90;99.90;;;;;;4994187;28;20458;-68
2024/01/26 06:50:03;;;;;;;2.20;1.30;;;8.90;99.90;;;;;;5011560;28;20426;-69
2024/01/26 06:52:29;;;;;;;1.90;1.13;;;9.00;99.90;;;;;;5012595;28;20171;-69
2024/01/26 06:54:54;;;;;;;2.57;1.17;;;9.10;99.90;;;;;;5008143;28;20461;-68
2024/01/26 06:57:19;;;;;;;1.63;1.30;;;9.10;99.90;;;;;;4997521;28;20178;-69
2024/01/26 06:59:45;;;;;;;1.27;1.17;;;9.10;99.90;;;;;;5013169;28;20203;-69
2024/01/26 07:02:11;;;;;;;3.17;2.50;;;9.10;99.90;;;;;;5013625;28;20658;-69
2024/01/26 07:04:36;;;;;;;2.53;1.70;;;9.10;99.90;;;;;;5012810;28;20277;-69
2024/01/26 07:07:02;;;;;;;3.40;2.30;;;9.20;99.90;;;;;;5013440;28;20242;-69
2024/01/26 07:09:27;;;;;;;6.73;1.93;;;9.20;99.90;;;;;;5013550;28;20508;-69
2024/01/26 07:11:53;;;;;;;5.83;2.00;;;9.20;99.90;;;;;;5007188;28;20578;-69
2024/01/26 07:14:19;;;;;;;1.13;1.03;;;9.20;99.90;;;;;;5011998;28;20648;-69
2024/01/26 07:16:46;;;;;;;1.80;1.70;;;9.20;99.90;;;;;;5021635;28;20651;-68
2024/01/26 07:19:11;;;;;;;1.90;1.20;;;9.30;99.90;;;;;;5023137;28;20962;-69
2024/01/26 07:21:37;;;;;;;1.37;1.27;;;9.30;99.90;;;;;;5009522;28;20500;-69
2024/01/26 07:24:02;;;;;;;3.20;1.13;;;9.30;99.90;;;;;;5012186;28;20532;-69
2024/01/26 07:26:28;;;;;;;1.90;1.40;;;9.30;99.90;;;;;;5011131;28;20597;-70
2024/01/26 07:28:54;;;;;;;4.03;2.50;;;9.30;99.90;;;;;;5014459;28;20178;-70
2024/01/26 07:31:19;;;;;;;1.70;1.20;;;9.30;99.90;;;;;;5018470;28;20179;-70
2024/01/26 07:33:44;;;;;;;1.80;1.70;;;9.40;99.90;;;;;;5019276;28;20206;-70
2024/01/26 07:36:10;;;;;;;3.40;1.80;;;9.40;99.90;;;;;;5006842;28;20269;-70
2024/01/26 07:38:35;;;;;;;2.00;1.80;;;9.40;99.90;;;;;;5013257;28;20598;-70
2024/01/26 07:41:01;;;;;;;1.87;1.67;;;9.40;99.90;;;;;;5015356;28;20206;-70
2024/01/26 07:43:27;;;;;;;2.40;1.50;;;9.50;99.90;;;;;;5008511;28;20259;-70
2024/01/26 07:45:52;;;;;;;2.27;1.37;;;9.50;99.90;;;;;;4995023;28;20195;-70
2024/01/26 07:48:19;;;;;;;2.60;1.60;;;9.50;99.90;;;;;;4996070;28;20575;-70
2024/01/26 07:50:45;;;;;;;4.60;1.80;;;9.50;99.90;;;;;;4994561;28;20172;-70
2024/01/26 07:53:11;;;;;;;5.57;1.50;;;9.60;99.90;;;;;;4996197;28;20469;-70
2024/01/26 07:55:37;;;;;;;2.20;1.53;;;9.60;99.90;;;;;;4995141;28;20500;-70
2024/01/26 07:58:02;;;;;;;2.43;1.80;;;9.70;99.90;;;;;;4995754;28;20511;-70
2024/01/26 08:00:28;;;;;;;1.73;1.40;;;9.80;99.90;;;;;;4994859;28;20273;-70
2024/01/26 08:02:54;;;;;;;3.13;1.60;;;10.00;99.90;;;;;;5008347;28;20202;-70
2024/01/26 08:05:20;;;;;;;2.10;1.10;;;10.50;99.90;;;;;;5014261;28;20198;-70
2024/01/26 08:07:46;;;;;;;1.40;1.30;;;10.80;99.90;;;;;;5013033;28;20202;-70
2024/01/26 08:10:12;;;;;;;1.20;1.10;;;10.90;99.90;;;;;;5013244;28;20210;-70
2024/01/26 08:12:38;;;;;;;2.00;1.27;;;11.00;99.90;;;;;;5001488;28;20431;-70
2024/01/26 08:15:04;;;;;;;2.80;1.40;;;10.90;99.90;;;;;;4993758;28;20203;-70
2024/01/26 08:17:30;;;;;;;3.13;1.20;;;10.80;99.90;;;;;;5000493;28;20488;-69
2024/01/26 08:19:57;;;;;;;5.13;1.90;;;10.70;99.90;;;;;;5012845;28;20171;-70
2024/01/26 08:22:23;;;;;;;3.20;2.23;;;10.70;99.90;;;;;;5012975;28;20217;-70
2024/01/26 08:24:48;;;;;;;1.80;1.53;;;10.70;99.90;;;;;;4999284;28;20467;-70
2024/01/26 08:27:14;;;;;;;3.47;1.57;;;10.80;99.90;;;;;;4993009;28;20191;-70
2024/01/26 08:29:39;;;;;;;2.50;1.47;;;10.90;99.90;;;;;;4976200;28;20182;-70
2024/01/26 08:32:05;;;;;;;2.23;1.70;;;11.00;99.90;;;;;;4994027;28;20171;-70
2024/01/26 08:34:31;;;;;;;1.60;1.40;;;11.10;99.90;;;;;;4992511;28;20202;-70
2024/01/26 08:36:56;;;;;;;2.00;1.87;;;11.10;99.90;;;;;;4993223;28;20427;-70
2024/01/26 08:39:22;;;;;;;1.70;1.60;;;11.00;99.90;;;;;;4996791;28;20238;-70
2024/01/26 08:41:48;;;;;;;3.17;1.60;;;11.00;99.90;;;;;;4997847;28;20171;-70
2024/01/26 08:44:14;;;;;;;2.80;1.73;;;11.00;99.90;;;;;;5016870;28;20186;-70
2024/01/26 08:46:40;;;;;;;3.63;2.67;;;11.10;99.90;;;;;;5015883;28;20519;-70
2024/01/26 08:49:06;;;;;;;3.37;2.60;;;11.10;99.90;;;;;;5014754;28;20238;-70
2024/01/26 08:51:32;;;;;;;2.57;2.37;;;11.10;99.90;;;;;;5016578;28;20167;-69
2024/01/26 08:53:58;;;;;;;2.40;2.20;;;11.20;99.90;;;;;;5014512;28;20171;-70
2024/01/26 08:56:24;;;;;;;2.03;1.93;;;11.20;99.90;;;;;;4996319;28;20429;-70
2024/01/26 08:58:50;;;;;;;2.00;1.53;;;11.20;99.90;;;;;;4996858;28;20202;-70
2024/01/26 09:01:15;;;;;;;1.50;1.40;;;11.30;99.90;;;;;;4997206;28;20422;-70
2024/01/26 09:03:41;;;;;;;2.80;1.97;;;11.30;99.90;;;;;;5008350;28;20433;-70
2024/01/26 09:06:08;;;;;;;1.90;1.80;;;11.40;99.90;;;;;;5017109;28;20668;-71
2024/01/26 09:08:34;;;;;;;2.13;1.20;;;11.50;99.90;;;;;;5016268;28;20425;-70
2024/01/26 09:10:59;;;;;;;3.70;1.70;;;11.40;99.90;;;;;;5016427;28;20904;-70
2024/01/26 09:13:25;;;;;;;2.50;1.67;;;11.30;99.90;;;;;;5006097;28;20513;-70
2024/01/26 09:15:51;;;;;;;2.43;1.40;;;11.50;99.90;;;;;;4996347;28;20199;-70
2024/01/26 09:18:17;;;;;;;2.37;1.97;;;11.50;99.90;;;;;;4997325;28;20669;-70
2024/01/26 09:20:43;;;;;;;4.43;4.10;;;11.40;99.90;;;;;;4996868;28;20178;-70
2024/01/26 09:23:09;;;;;;;1.50;1.40;;;11.40;99.90;;;;;;4997004;28;20172;-70
2024/01/26 09:25:35;;;;;;;2.40;2.20;;;11.30;99.90;;;;;;5007164;28;20471;-70
2024/01/26 09:28:00;;;;;;;2.40;1.70;;;11.30;99.90;;;;;;5015596;28;20202;-70
2024/01/26 09:30:26;;;;;;;1.33;1.23;;;11.30;99.90;;;;;;5015711;28;20519;-70
2024/01/26 09:32:51;;;;;;;1.73;1.20;;;11.40;99.90;;;;;;5014494;28;20181;-70
2024/01/26 09:35:17;;;;;;;1.80;1.70;;;11.40;99.90;;;;;;5015496;28;20195;-69
2024/01/26 09:37:43;;;;;;;2.00;1.80;;;11.50;99.90;;;;;;5015513;28;20174;-70
2024/01/26 09:40:11;;;;;;;2.30;1.30;;;11.40;99.90;;;;;;5016151;28;20175;-70
2024/01/26 09:42:37;;;;;;;4.63;1.87;;;11.20;99.90;;;;;;4997844;28;20183;-70
2024/01/26 09:45:04;;;;;;;2.50;1.70;;;11.20;99.90;;;;;;4996415;28;20450;-69
2024/01/26 09:47:31;;;;;;;1.87;1.77;;;11.10;99.90;;;;;;4995209;28;20203;-71
2024/01/26 09:50:01;;;;;;;2.37;2.10;;;11.10;99.90;;;;;;4996342;28;20458;-70
2024/01/26 09:52:27;;;;;;;1.70;1.60;;;11.10;99.90;;;;;;4995747;28;20419;-71
2024/01/26 09:54:54;;;;;;;2.20;1.67;;;11.20;99.90;;;;;;4996149;28;20441;-71
2024/01/26 09:57:21;;;;;;;1.70;1.60;;;11.30;99.90;;;;;;4995366;28;20176;-71
2024/01/26 09:59:50;;;;;;;2.40;1.67;;;11.30;99.90;;;;;;4978124;28;20446;-71
2024/01/26 10:02:17;;;;;;;1.90;1.80;;;11.30;99.90;;;;;;5021498;28;20930;-71
2024/01/26 10:04:44;;;;;;;1.50;1.40;;;11.30;99.90;;;;;;5023433;28;21010;-73
2024/01/26 10:07:10;;;;;;;1.67;1.57;;;11.40;99.90;;;;;;5013183;28;20461;-71
2024/01/26 10:09:36;;;;;;;1.90;1.40;;;11.30;99.90;;;;;;5014594;28;20936;-71
2024/01/26 10:12:02;;;;;;;2.17;1.90;;;11.30;99.90;;;;;;5014626;28;20174;-71
2024/01/26 10:14:27;;;;;;;4.83;2.00;;;11.30;99.90;;;;;;5011663;28;20207;-71
2024/01/26 10:17:00;;;;;;;3.30;2.57;;;11.30;99.90;;;;;;5014080;28;20788;-71
2024/01/26 10:19:26;;;;;;;2.40;2.20;;;11.30;99.90;;;;;;5013271;28;20644;-72
2024/01/26 10:21:52;;;;;;;3.00;1.87;;;11.30;99.90;;;;;;5014582;28;20473;-71
2024/01/26 10:24:22;;;;;;;1.57;1.47;;;11.40;99.90;;;;;;5013753;28;20465;-71
2024/01/26 10:26:47;;;;;;;2.10;1.90;;;11.40;99.90;;;;;;5017472;28;20547;-72
2024/01/26 10:29:13;;;;;;;1.80;1.63;;;11.50;99.90;;;;;;5033842;28;20528;-73
2024/01/26 10:31:41;;;;;;;1.70;1.60;;;11.50;99.90;;;;;;5033030;28;20175;-72
2024/01/26 10:34:13;;;;;;;1.57;1.47;;;11.50;99.90;;;;;;5028371;28;20172;-73
2024/01/26 10:36:42;;;;;;;2.40;2.20;;;11.50;99.90;;;;;;5014169;28;20422;-71
2024/01/26 10:39:13;;;;;;;3.27;2.53;;;11.50;99.90;;;;;;5014110;28;20425;-70
2024/01/26 10:41:42;;;;;;;2.20;2.10;;;11.50;99.90;;;;;;5002321;28;20427;-71
2024/01/26 10:44:09;;;;;;;2.03;1.73;;;11.50;99.90;;;;;;4994864;28;20998;-70
2024/01/26 10:46:37;;;;;;;2.97;2.07;;;11.60;99.90;;;;;;4994431;28;21000;-70
2024/01/26 10:49:03;;;;;;;2.33;2.03;;;11.60;99.90;;;;;;4977987;28;20423;-70
2024/01/26 10:51:31;;;;;;;2.47;1.77;;;11.60;99.90;;;;;;4994758;28;20765;-71
2024/01/26 10:53:59;;;;;;;2.93;1.70;;;11.70;99.90;;;;;;4994453;28;20598;-71
2024/01/26 10:56:24;;;;;;;1.60;1.50;;;11.70;99.90;;;;;;4994448;28;20426;-66
2024/01/26 10:58:50;;;;;;;2.40;1.60;;;11.80;99.90;;;;;;4993999;28;20423;-67
2024/01/26 11:01:16;;;;;;;2.00;1.67;;;11.80;99.90;;;;;;4999600;28;20179;-67
2024/01/26 11:03:43;;;;;;;2.70;1.60;;;11.80;99.90;;;;;;5013463;28;20186;-68
2024/01/26 11:06:10;;;;;;;1.70;1.60;;;11.80;99.90;;;;;;4998519;28;20559;-67
2024/01/26 11:08:35;;;;;;;1.40;1.30;;;11.80;99.90;;;;;;4993861;28;20433;-69
2024/01/26 11:11:01;;;;;;;1.70;1.60;;;11.80;99.90;;;;;;5009440;28;20923;-69
2024/01/26 11:13:26;;;;;;;1.87;1.77;;;11.90;99.90;;;;;;5012936;28;20619;-71
2024/01/26 11:16:03;;;;;;;1.50;1.40;;;12.00;99.90;;;;;;4976504;28;20283;-71
2024/01/26 11:18:28;;;;;;;1.27;1.27;;;12.00;99.90;;;;;;4993760;28;20577;-70
2024/01/26 11:20:54;;;;;;;7.90;1.93;;;12.00;99.90;;;;;;5008484;28;20433;-71
2024/01/26 11:23:20;;;;;;;3.17;1.40;;;11.90;99.90;;;;;;5013336;28;20217;-71
2024/01/26 11:25:53;;;;;;;1.63;1.53;;;11.90;99.90;;;;;;5013340;28;20740;-70
2024/01/26 11:28:28;;;;;;;2.07;1.97;;;11.90;99.90;;;;;;5012670;28;20469;-70
2024/01/26 11:31:00;;;;;;;2.67;2.43;;;11.90;99.90;;;;;;5012910;28;20436;-70
2024/01/26 11:33:37;;;;;;;2.57;1.80;;;12.00;99.90;;;;;;5013183;28;20457;-70
2024/01/26 11:36:04;;;;;;;1.57;1.40;;;12.00;99.90;;;;;;5011221;28;20833;-70
2024/01/26 11:38:31;;;;;;;1.50;1.40;;;11.90;99.90;;;;;;5012829;28;20425;-70
2024/01/26 11:41:00;;;;;;;1.77;1.67;;;11.90;99.90;;;;;;5012721;28;20429;-70
2024/01/26 11:43:26;;;;;;;3.17;1.77;;;11.90;99.90;;;;;;5011149;28;20613;-70
2024/01/26 11:45:52;;;;;;;2.30;1.73;;;11.90;99.90;;;;;;5012391;28;20457;-70
2024/01/26 11:48:20;;;;;;;1.67;1.57;;;12.00;99.90;;;;;;5012055;28;20461;-72
2024/01/26 11:50:47;;;;;;;1.73;1.63;;;12.00;99.90;;;;;;5005562;28;20202;-70
2024/01/26 11:53:14;;;;;;;1.73;1.40;;;12.00;99.90;;;;;;5000531;28;20426;-70
2024/01/26 11:55:41;;;;;;;3.47;2.90;;;12.00;99.90;;;;;;5012805;28;20996;-70
2024/01/26 11:58:07;;;;;;;4.20;2.00;;;11.80;99.90;;;;;;5012234;28;20418;-71
2024/01/26 12:00:35;;;;;;;2.37;1.80;;;11.80;99.90;;;;;;5012041;28;20432;-71
2024/01/26 12:03:09;;;;;;;3.07;2.20;;;11.90;99.90;;;;;;5012472;28;20426;-71
2024/01/26 12:05:35;;;;;;;2.53;1.77;;;11.90;99.90;;;;;;5011076;28;20493;-70
2024/01/26 12:08:04;;;;;;;2.27;2.07;;;12.00;99.90;;;;;;5012322;28;20503;-70
2024/01/26 12:10:30;;;;;;;2.03;1.70;;;12.00;99.90;;;;;;5012467;28;20458;-71
2024/01/26 12:12:56;;;;;;;1.70;1.60;;;12.00;99.90;;;;;;5002526;28;20434;-71
2024/01/26 12:15:27;;;;;;;1.80;1.50;;;12.10;99.90;;;;;;4993556;28;20446;-71
2024/01/26 12:17:53;;;;;;;2.50;2.30;;;12.10;99.90;;;;;;5003746;28;20266;-71
2024/01/26 12:20:18;;;;;;;1.60;1.47;;;12.10;99.90;;;;;;5012392;28;21097;-70
2024/01/26 12:22:45;;;;;;;3.37;1.83;;;12.10;99.90;;;;;;4994617;28;20560;-71
2024/01/26 12:25:14;;;;;;;1.77;1.40;;;12.20;99.90;;;;;;4992532;28;20222;-70
2024/01/26 12:27:41;;;;;;;1.50;1.40;;;12.20;99.90;;;;;;4992402;28;20466;-70
2024/01/26 12:30:09;;;;;;;4.27;1.73;;;12.20;99.90;;;;;;4992731;28;20423;-70
2024/01/26 12:32:37;;;;;;;1.30;1.20;;;12.30;99.90;;;;;;5009704;28;20421;-70
2024/01/26 12:35:02;;;;;;;1.80;1.70;;;12.30;99.90;;;;;;5012068;28;20449;-70
2024/01/26 12:37:28;;;;;;;2.10;1.30;;;12.20;99.90;;;;;;5010384;28;20432;-70
2024/01/26 12:39:53;;;;;;;1.43;1.33;;;12.10;99.90;;;;;;5011782;28;20261;-70
2024/01/26 12:42:19;;;;;;;1.60;1.50;;;12.10;99.90;;;;;;5012341;28;20187;-70
2024/01/26 12:44:44;;;;;;;1.67;1.57;;;12.00;99.90;;;;;;5012105;28;20668;-70
2024/01/26 12:47:10;;;;;;;1.80;1.60;;;11.90;99.90;;;;;;5011787;28;20249;-70